createdAt,value
2022-09-24T00:01:28.956Z,3.45
2022-09-24T00:04:00.876Z,3.30
2022-09-24T00:06:29.680Z,3.17
2022-09-24T00:08:57.644Z,3.50
2022-09-24T00:11:25.726Z,3.10
2022-09-24T00:13:53.347Z,3.33
2022-09-24T00:16:22.006Z,3.30
2022-09-24T00:18:49.808Z,3.40
2022-09-24T00:21:21.443Z,3.72
2022-09-24T00:23:52.971Z,3.47
2022-09-24T00:26:39.239Z,3.83
2022-09-24T00:29:07.135Z,3.65
2022-09-24T00:31:34.549Z,3.95
2022-09-24T00:34:02.206Z,4.00
2022-09-24T00:36:29.829Z,3.90
2022-09-24T00:38:58.159Z,4.18
2022-09-24T00:41:27.320Z,4.32
2022-09-24T00:43:54.879Z,3.90
2022-09-24T00:46:34.247Z,4.05
2022-09-24T00:49:13.775Z,4.68
2022-09-24T00:51:42.384Z,4.13
2022-09-24T00:54:12.040Z,3.63
2022-09-24T00:56:40.570Z,4.20
2022-09-24T00:59:11.291Z,4.10
2022-09-24T01:01:39.315Z,4.47
2022-09-24T01:04:07.393Z,3.75
2022-09-24T01:06:34.821Z,4.15
2022-09-24T01:09:02.359Z,3.78
2022-09-24T01:11:38.905Z,3.72
2022-09-24T01:14:06.500Z,3.88
2022-09-24T01:16:42.633Z,3.83
2022-09-24T01:19:10.200Z,3.90
2022-09-24T01:21:41.582Z,4.18
2022-09-24T01:24:29.512Z,4.00
2022-09-24T01:27:04.138Z,4.25
2022-09-24T01:29:34.451Z,4.20
2022-09-24T01:32:07.655Z,4.10
2022-09-24T01:34:55.284Z,3.90
2022-09-24T01:37:23.698Z,4.18
2022-09-24T01:39:53.122Z,4.35
2022-09-24T01:42:22.079Z,4.43
2022-09-24T01:44:50.469Z,5.32
2022-09-24T01:47:23.448Z,4.53
2022-09-24T01:49:53.485Z,4.82
2022-09-24T01:52:23.436Z,4.50
2022-09-24T01:54:52.485Z,6.50
2022-09-24T01:57:31.139Z,6.97
2022-09-24T02:00:05.663Z,5.43
2022-09-24T02:02:45.465Z,7.82
2022-09-24T02:05:12.898Z,6.22
2022-09-24T02:07:43.322Z,7.82
2022-09-24T02:10:17.716Z,5.57
2022-09-24T02:12:46.778Z,8.40
2022-09-24T02:15:17.461Z,6.38
2022-09-24T02:17:47.586Z,5.28
2022-09-24T02:20:16.964Z,7.60
2022-09-24T02:22:44.946Z,5.07
2022-09-24T02:25:14.720Z,6.97
2022-09-24T02:27:42.407Z,6.38
2022-09-24T02:30:10.967Z,5.78
2022-09-24T02:32:40.662Z,5.65
2022-09-24T02:35:09.906Z,5.72
2022-09-24T02:37:38.305Z,5.38
2022-09-24T02:40:07.314Z,5.13
2022-09-24T02:42:35.181Z,5.07
2022-09-24T02:45:04.517Z,5.47
2022-09-24T02:47:31.962Z,4.90
2022-09-24T02:49:59.408Z,6.93
2022-09-24T02:52:26.825Z,7.55
2022-09-24T02:54:54.323Z,5.90
2022-09-24T02:57:21.691Z,5.50
2022-09-24T02:59:49.181Z,4.88
2022-09-24T03:02:16.786Z,5.75
2022-09-24T03:04:44.400Z,5.28
2022-09-24T03:07:14.570Z,6.20
2022-09-24T03:09:42.108Z,6.18
2022-09-24T03:12:09.560Z,6.78
2022-09-24T03:14:36.951Z,12.15
2022-09-24T03:17:04.445Z,11.52
2022-09-24T03:19:31.800Z,8.73
2022-09-24T03:21:59.265Z,5.70
2022-09-24T03:24:26.772Z,5.80
2022-09-24T03:26:54.160Z,5.47
2022-09-24T03:29:41.518Z,4.60
2022-09-24T03:32:08.977Z,5.45
2022-09-24T03:34:36.307Z,5.22
2022-09-24T03:37:03.754Z,5.18
2022-09-24T03:39:31.194Z,4.88
2022-09-24T03:41:58.632Z,5.03
2022-09-24T03:44:27.220Z,5.03
2022-09-24T03:46:54.743Z,5.00
2022-09-24T03:49:23.609Z,6.22
2022-09-24T03:51:51.080Z,5.10
2022-09-24T03:54:18.539Z,5.30
2022-09-24T03:56:45.943Z,5.25
2022-09-24T03:59:13.317Z,5.15
2022-09-24T04:01:40.766Z,6.40
2022-09-24T04:04:08.233Z,5.97
2022-09-24T04:06:35.755Z,7.05
2022-09-24T04:09:03.161Z,6.20
2022-09-24T04:11:30.667Z,5.35
2022-09-24T04:13:59.227Z,16.25
2022-09-24T04:16:26.702Z,6.60
2022-09-24T04:18:55.584Z,14.02
2022-09-24T04:21:23.107Z,6.97
2022-09-24T04:23:50.650Z,9.43
2022-09-24T04:26:18.088Z,23.13
2022-09-24T04:28:45.527Z,13.32
2022-09-24T04:31:13.031Z,7.15
2022-09-24T04:33:40.816Z,6.20
2022-09-24T04:36:08.225Z,6.75
2022-09-24T04:38:35.849Z,5.72
2022-09-24T04:41:09.846Z,8.43
2022-09-24T04:43:37.398Z,5.68
2022-09-24T04:46:05.142Z,5.80
2022-09-24T04:48:33.003Z,7.30
2022-09-24T04:51:02.201Z,5.28
2022-09-24T04:53:29.664Z,6.50
2022-09-24T04:55:57.058Z,5.43
2022-09-24T04:58:26.804Z,5.25
2022-09-24T05:00:54.624Z,6.20
2022-09-24T05:03:22.030Z,6.40
2022-09-24T05:05:52.543Z,5.60
2022-09-24T05:08:20.013Z,5.57
2022-09-24T05:10:47.348Z,5.43
2022-09-24T05:13:14.799Z,5.47
2022-09-24T05:15:43.313Z,6.53
2022-09-24T05:18:11.011Z,11.65
2022-09-24T05:20:38.340Z,6.63
2022-09-24T05:23:06.070Z,6.20
2022-09-24T05:25:33.417Z,5.13
2022-09-24T05:28:00.999Z,5.18
2022-09-24T05:30:28.356Z,5.68
2022-09-24T05:32:55.725Z,6.30
2022-09-24T05:35:24.000Z,5.95
2022-09-24T05:37:53.731Z,7.60
2022-09-24T05:40:40.808Z,6.03
2022-09-24T05:43:08.630Z,6.80
2022-09-24T05:45:36.005Z,7.03
2022-09-24T05:48:03.528Z,7.30
2022-09-24T05:50:32.721Z,6.00
2022-09-24T05:53:00.423Z,6.30
2022-09-24T05:55:32.206Z,5.68
2022-09-24T05:58:04.029Z,6.28
2022-09-24T06:00:31.610Z,6.07
2022-09-24T06:03:02.890Z,6.22
2022-09-24T06:05:30.399Z,6.90
2022-09-24T06:07:57.816Z,6.68
2022-09-24T06:10:26.288Z,7.45
2022-09-24T06:12:54.095Z,7.10
2022-09-24T06:15:22.519Z,7.10
2022-09-24T06:17:49.870Z,6.18
2022-09-24T06:20:17.292Z,5.90
2022-09-24T06:22:44.830Z,6.47
2022-09-24T06:25:12.172Z,6.65
2022-09-24T06:27:39.600Z,6.22
2022-09-24T06:30:07.371Z,6.68
2022-09-24T06:32:34.825Z,8.05
2022-09-24T06:35:02.168Z,8.10
2022-09-24T06:37:29.582Z,6.85
2022-09-24T06:39:56.976Z,7.75
2022-09-24T06:42:24.343Z,7.85
2022-09-24T06:44:51.755Z,7.25
2022-09-24T06:47:19.157Z,7.05
2022-09-24T06:49:46.527Z,6.97
2022-09-24T06:52:13.927Z,10.98
2022-09-24T06:54:41.296Z,6.10
2022-09-24T06:57:08.719Z,7.03
2022-09-24T06:59:36.185Z,7.38
2022-09-24T07:02:03.667Z,6.10
2022-09-24T07:04:31.100Z,5.05
2022-09-24T07:07:17.072Z,4.85
2022-09-24T07:09:44.517Z,11.13
2022-09-24T07:12:11.956Z,5.50
2022-09-24T07:14:39.407Z,5.47
2022-09-24T07:17:06.761Z,4.90
2022-09-24T07:19:34.133Z,6.25
2022-09-24T07:22:01.596Z,4.72
2022-09-24T07:24:28.940Z,6.13
2022-09-24T07:26:56.971Z,3.95
2022-09-24T07:29:24.635Z,4.45
2022-09-24T07:31:52.128Z,5.60
2022-09-24T07:34:19.551Z,5.13
2022-09-24T07:36:46.955Z,8.52
2022-09-24T07:39:14.307Z,5.88
2022-09-24T07:41:42.551Z,6.90
2022-09-24T07:44:10.299Z,2.97
2022-09-24T07:46:37.794Z,2.95
2022-09-24T07:49:05.955Z,3.58
2022-09-24T07:51:34.055Z,5.53
2022-09-24T07:54:01.555Z,3.55
2022-09-24T07:56:29.018Z,4.75
2022-09-24T07:58:56.679Z,4.03
2022-09-24T08:01:24.842Z,2.90
2022-09-24T08:03:52.951Z,6.30
2022-09-24T08:06:24.402Z,6.57
2022-09-24T08:08:53.108Z,9.52
2022-09-24T08:11:21.444Z,3.35
2022-09-24T08:13:48.945Z,5.35
2022-09-24T08:16:16.696Z,14.48
2022-09-24T08:18:44.598Z,18.02
2022-09-24T08:21:13.319Z,4.10
2022-09-24T08:23:41.360Z,3.05
2022-09-24T08:26:09.222Z,2.40
2022-09-24T08:28:37.059Z,8.13
2022-09-24T08:31:08.911Z,3.38
2022-09-24T08:33:37.342Z,8.73
2022-09-24T08:36:06.259Z,2.53
2022-09-24T08:38:33.786Z,3.80
2022-09-24T08:41:01.320Z,7.88
2022-09-24T08:43:47.261Z,12.43
2022-09-24T08:46:36.220Z,42.92
2022-09-24T08:49:04.855Z,13.80
2022-09-24T08:51:36.548Z,11.85
2022-09-24T08:54:06.664Z,2.90
2022-09-24T08:56:36.234Z,11.68
2022-09-24T08:59:11.363Z,2.45
2022-09-24T09:01:57.444Z,2.35
2022-09-24T09:04:31.185Z,3.78
2022-09-24T09:07:18.923Z,2.95
2022-09-24T09:09:54.149Z,2.47
2022-09-24T09:12:31.467Z,2.10
2022-09-24T09:15:03.952Z,2.17
2022-09-24T09:17:42.585Z,2.90
2022-09-24T09:20:17.257Z,2.45
2022-09-24T09:22:52.066Z,2.40
2022-09-24T09:25:24.772Z,2.50
2022-09-24T09:28:04.256Z,3.20
2022-09-24T09:30:36.597Z,4.80
2022-09-24T09:33:42.748Z,3.08
2022-09-24T09:38:46.473Z,2.97
2022-09-24T09:41:16.951Z,3.15
2022-09-24T09:43:44.560Z,3.88
2022-09-24T09:46:15.989Z,4.50
2022-09-24T09:48:47.557Z,4.13
2022-09-24T09:51:22.252Z,3.25
2022-09-24T09:54:00.362Z,3.67
2022-09-24T09:56:30.698Z,2.80
2022-09-24T09:59:07.203Z,4.03
2022-09-24T10:01:35.905Z,4.40
2022-09-24T10:04:04.961Z,3.80
2022-09-24T10:06:34.216Z,3.70
2022-09-24T10:09:08.017Z,2.60
2022-09-24T10:11:35.830Z,3.05
2022-09-24T10:14:04.600Z,3.55
2022-09-24T10:16:36.794Z,3.90
2022-09-24T10:19:04.370Z,3.92
2022-09-24T10:21:36.037Z,4.07
2022-09-24T10:24:04.736Z,4.22
2022-09-24T10:26:44.012Z,5.55
2022-09-24T10:29:34.031Z,4.00
2022-09-24T10:32:01.563Z,2.78
2022-09-24T10:34:29.569Z,2.58
2022-09-24T10:37:02.048Z,2.60
2022-09-24T10:39:30.055Z,2.70
2022-09-24T10:41:58.236Z,2.95
2022-09-24T10:44:36.182Z,2.63
2022-09-24T10:47:20.547Z,2.30
2022-09-24T10:50:06.715Z,2.88
2022-09-24T10:52:54.492Z,2.95
2022-09-24T10:55:31.280Z,2.33
2022-09-24T10:57:59.033Z,3.85
2022-09-24T11:00:49.148Z,10.68
2022-09-24T11:03:25.877Z,3.40
2022-09-24T11:05:55.464Z,5.95
2022-09-24T11:08:38.176Z,3.08
2022-09-24T11:11:05.583Z,2.92
2022-09-24T11:13:42.089Z,7.07
2022-09-24T11:16:09.756Z,3.97
2022-09-24T11:18:55.886Z,4.22
2022-09-24T11:21:29.238Z,5.93
2022-09-24T11:23:59.677Z,2.30
2022-09-24T11:26:34.500Z,3.80
2022-09-24T11:31:32.230Z,4.57
2022-09-24T11:33:59.847Z,3.60
2022-09-24T11:36:33.102Z,3.00
2022-09-24T11:39:07.000Z,3.10
2022-09-24T11:41:55.398Z,4.05
2022-09-24T11:44:27.143Z,4.47
2022-09-24T11:47:21.814Z,3.38
2022-09-24T11:49:56.935Z,3.60
2022-09-24T11:52:43.845Z,2.85
2022-09-24T11:55:11.347Z,2.78
2022-09-24T11:57:41.466Z,2.78
2022-09-24T12:00:16.869Z,4.50
2022-09-24T12:02:44.416Z,8.50
2022-09-24T12:05:14.616Z,10.18
2022-09-24T12:08:09.168Z,4.60
2022-09-24T12:10:43.259Z,11.77
2022-09-24T12:13:18.226Z,16.83
2022-09-24T12:15:56.303Z,2.50
2022-09-24T12:18:26.394Z,4.97
2022-09-24T12:21:01.917Z,3.00
2022-09-24T12:23:31.392Z,5.10
2022-09-24T12:26:00.358Z,6.72
2022-09-24T12:28:48.464Z,4.72
2022-09-24T12:31:57.452Z,2.40
2022-09-24T12:34:35.558Z,3.25
2022-09-24T12:37:12.468Z,2.72
2022-09-24T12:39:46.304Z,2.40
2022-09-24T12:42:14.405Z,3.13
2022-09-24T12:44:45.901Z,2.80
2022-09-24T12:47:23.991Z,5.97
2022-09-24T12:49:54.819Z,2.80
2022-09-24T12:52:26.742Z,3.35
2022-09-24T12:55:02.305Z,3.15
2022-09-24T12:57:33.679Z,2.78
2022-09-24T13:00:02.296Z,2.38
2022-09-24T13:02:34.222Z,2.92
2022-09-24T13:05:01.741Z,2.72
2022-09-24T13:07:30.201Z,2.22
2022-09-24T13:09:57.660Z,9.32
2022-09-24T13:12:33.151Z,18.92
2022-09-24T13:15:06.706Z,4.65
2022-09-24T13:17:35.247Z,3.10
2022-09-24T13:20:26.068Z,2.78
2022-09-24T13:22:58.160Z,2.42
2022-09-24T13:25:26.111Z,2.55
2022-09-24T13:28:01.072Z,2.30
2022-09-24T13:30:31.207Z,2.22
2022-09-24T13:33:00.456Z,2.95
2022-09-24T13:35:29.572Z,1.92
2022-09-24T13:38:04.155Z,2.28
2022-09-24T13:40:34.383Z,2.55
2022-09-24T13:43:20.202Z,2.50
2022-09-24T13:45:47.831Z,2.47
2022-09-24T13:48:22.530Z,2.30
2022-09-24T13:53:32.196Z,2.50
2022-09-24T13:56:07.706Z,2.10
2022-09-24T13:58:36.693Z,2.30
2022-09-24T14:01:10.234Z,3.53
2022-09-24T14:03:40.518Z,6.78
2022-09-24T14:06:17.749Z,4.07
2022-09-24T14:08:47.160Z,4.22
2022-09-24T14:11:27.667Z,5.18
2022-09-24T14:13:57.439Z,2.55
2022-09-24T14:16:25.761Z,2.67
2022-09-24T14:19:06.770Z,2.13
2022-09-24T14:21:37.729Z,2.40
2022-09-24T14:24:07.971Z,2.10
2022-09-24T14:26:44.826Z,3.10
2022-09-24T14:29:35.399Z,2.70
2022-09-24T14:32:05.187Z,3.13
2022-09-24T14:34:32.615Z,5.20
2022-09-24T14:37:01.663Z,3.28
2022-09-24T14:39:30.152Z,3.63
2022-09-24T14:41:59.211Z,5.95
2022-09-24T14:44:27.789Z,2.60
2022-09-24T14:46:57.855Z,3.60
2022-09-24T14:49:27.632Z,3.10
2022-09-24T14:52:05.262Z,3.10
2022-09-24T14:54:43.055Z,3.05
2022-09-24T14:57:19.728Z,2.95
2022-09-24T14:59:47.782Z,3.20
2022-09-24T15:02:21.559Z,4.68
2022-09-24T15:04:53.904Z,2.65
2022-09-24T15:07:26.019Z,3.15
2022-09-24T15:09:55.888Z,3.08
2022-09-24T15:12:33.106Z,3.97
2022-09-24T15:15:00.795Z,3.28
2022-09-24T15:17:32.593Z,4.95
2022-09-24T15:20:00.566Z,4.30
2022-09-24T15:22:28.957Z,5.45
2022-09-24T15:25:01.187Z,3.95
2022-09-24T15:27:31.248Z,5.43
2022-09-24T15:29:59.987Z,4.80
2022-09-24T15:32:28.466Z,3.72
2022-09-24T15:34:56.679Z,4.53
2022-09-24T15:37:25.564Z,5.25
2022-09-24T15:39:53.995Z,3.97
2022-09-24T15:42:26.101Z,4.25
2022-09-24T15:44:54.831Z,3.67
2022-09-24T15:47:23.235Z,3.17
2022-09-24T15:49:50.906Z,3.92
2022-09-24T15:52:24.257Z,4.07
2022-09-24T15:54:55.561Z,4.03
2022-09-24T15:57:23.126Z,3.00
2022-09-24T15:59:51.183Z,3.17
2022-09-24T16:02:22.604Z,6.57
2022-09-24T16:04:51.201Z,8.43
2022-09-24T16:07:18.591Z,6.15
2022-09-24T16:09:46.147Z,7.00
2022-09-24T16:12:17.226Z,5.72
2022-09-24T16:14:44.780Z,15.38
2022-09-24T16:17:12.511Z,14.60
2022-09-24T16:19:39.968Z,7.88
2022-09-24T16:22:07.329Z,9.57
2022-09-24T16:24:35.344Z,9.38
2022-09-24T16:27:03.041Z,27.85
2022-09-24T16:29:30.444Z,7.40
2022-09-24T16:31:59.657Z,14.98
2022-09-24T16:34:27.157Z,17.30
2022-09-24T16:36:54.578Z,12.70
2022-09-24T16:39:22.193Z,23.48
2022-09-24T16:41:50.442Z,23.85
2022-09-24T16:44:18.229Z,14.05
2022-09-24T16:46:46.027Z,21.75
2022-09-24T16:49:13.658Z,11.77
2022-09-24T16:51:41.082Z,13.65
2022-09-24T16:54:09.723Z,22.55
2022-09-24T16:56:41.288Z,18.05
2022-09-24T16:59:11.359Z,11.27
2022-09-24T17:01:40.026Z,20.67
2022-09-24T17:04:07.455Z,16.30
2022-09-24T17:06:34.925Z,14.45
2022-09-24T17:09:21.096Z,27.58
2022-09-24T17:11:49.699Z,11.43
2022-09-24T17:14:18.048Z,10.25
2022-09-24T17:16:46.055Z,11.63
2022-09-24T17:19:13.519Z,16.10
2022-09-24T17:21:42.353Z,15.02
2022-09-24T17:24:10.493Z,24.52
2022-09-24T17:26:38.401Z,19.23
2022-09-24T17:29:05.874Z,25.33
2022-09-24T17:31:33.965Z,23.92
2022-09-24T17:34:03.034Z,19.67
2022-09-24T17:36:31.123Z,21.52
2022-09-24T17:38:59.398Z,18.92
2022-09-24T17:41:27.972Z,19.35
2022-09-24T17:43:59.652Z,22.35
2022-09-24T17:46:31.326Z,23.63
2022-09-24T17:48:59.833Z,44.35
2022-09-24T17:51:32.582Z,66.95
2022-09-24T17:54:01.624Z,60.90
2022-09-24T17:56:30.110Z,46.03
2022-09-24T17:58:57.517Z,40.15
2022-09-24T18:01:27.813Z,44.65
2022-09-24T18:03:56.292Z,34.22
2022-09-24T18:06:27.125Z,33.55
2022-09-24T18:08:57.142Z,35.30
2022-09-24T18:11:25.512Z,31.20
2022-09-24T18:13:54.286Z,30.27
2022-09-24T18:16:22.513Z,34.72
2022-09-24T18:18:50.091Z,32.92
2022-09-24T18:21:18.636Z,31.27
2022-09-24T18:23:46.835Z,25.60
2022-09-24T18:26:18.796Z,27.05
2022-09-24T18:28:52.454Z,27.65
2022-09-24T18:31:21.204Z,21.13
2022-09-24T18:33:50.214Z,21.20
2022-09-24T18:36:19.151Z,28.35
2022-09-24T18:38:46.696Z,21.08
2022-09-24T18:41:15.740Z,23.17
2022-09-24T18:43:43.308Z,20.73
2022-09-24T18:46:12.106Z,27.33
2022-09-24T18:48:40.573Z,26.85
2022-09-24T18:51:08.632Z,27.77
2022-09-24T18:53:36.216Z,31.88
2022-09-24T18:56:07.635Z,37.65
2022-09-24T18:58:35.501Z,33.20
2022-09-24T19:01:03.703Z,43.53
2022-09-24T19:03:31.737Z,34.03
2022-09-24T19:06:03.419Z,28.80
2022-09-24T19:08:32.090Z,26.75
2022-09-24T19:11:04.823Z,26.98
2022-09-24T19:13:32.484Z,34.17
2022-09-24T19:16:04.372Z,28.95
2022-09-24T19:18:31.856Z,23.05
2022-09-24T19:20:59.253Z,21.17
2022-09-24T19:23:26.712Z,24.50
2022-09-24T19:25:54.466Z,26.02
2022-09-24T19:28:21.910Z,16.23
2022-09-24T19:30:50.456Z,19.13
2022-09-24T19:33:17.991Z,22.30
2022-09-24T19:36:04.965Z,22.98
2022-09-24T19:38:34.937Z,21.95
2022-09-24T19:41:02.322Z,21.15
2022-09-24T19:43:31.597Z,23.77
2022-09-24T19:45:59.891Z,23.83
2022-09-24T19:48:28.063Z,36.58
2022-09-24T19:50:59.431Z,39.72
2022-09-24T19:53:27.115Z,32.83
2022-09-24T19:55:55.021Z,31.65
2022-09-24T19:58:22.376Z,50.28
2022-09-24T20:00:49.885Z,43.78
2022-09-24T20:03:18.399Z,73.30
2022-09-24T20:05:45.815Z,36.78
2022-09-24T20:08:14.665Z,42.40
2022-09-24T20:10:44.676Z,34.08
2022-09-24T20:13:13.043Z,34.85
2022-09-24T20:15:41.517Z,33.97
2022-09-24T20:18:11.800Z,25.48
2022-09-24T20:20:42.683Z,21.08
2022-09-24T20:23:10.876Z,28.60
2022-09-24T20:25:56.904Z,22.27
2022-09-24T20:28:24.391Z,38.78
2022-09-24T20:30:51.892Z,32.45
2022-09-24T20:33:22.143Z,23.98
2022-09-24T20:35:50.265Z,24.85
2022-09-24T20:38:18.751Z,27.65
2022-09-24T20:40:46.306Z,18.27
2022-09-24T20:43:13.682Z,16.52
2022-09-24T20:45:41.337Z,16.60
2022-09-24T20:48:08.744Z,16.42
2022-09-24T20:50:36.172Z,18.73
2022-09-24T20:53:03.581Z,14.98
2022-09-24T20:55:31.173Z,13.75
2022-09-24T20:57:58.666Z,13.43
2022-09-24T21:00:32.330Z,16.08
2022-09-24T21:03:00.258Z,14.55
2022-09-24T21:05:28.279Z,16.15
2022-09-24T21:07:55.791Z,13.32
2022-09-24T21:10:23.208Z,17.38
2022-09-24T21:12:51.164Z,15.25
2022-09-24T21:15:18.644Z,15.90
2022-09-24T21:18:05.044Z,15.13
2022-09-24T21:20:34.067Z,16.60
2022-09-24T21:23:01.937Z,14.98
2022-09-24T21:25:52.937Z,14.48
2022-09-24T21:28:16.719Z,14.77
2022-09-24T21:30:44.232Z,15.13
2022-09-24T21:33:11.639Z,14.85
2022-09-24T21:35:39.015Z,14.98
2022-09-24T21:38:06.423Z,14.05
2022-09-24T21:40:37.022Z,14.93
2022-09-24T21:43:06.977Z,12.82
2022-09-24T21:45:34.399Z,14.98
2022-09-24T21:48:01.841Z,19.08
2022-09-24T21:50:29.776Z,26.10
2022-09-24T21:52:58.215Z,15.38
2022-09-24T21:55:25.685Z,15.25
2022-09-24T21:57:53.049Z,17.05
2022-09-24T22:00:22.231Z,20.05
2022-09-24T22:02:49.757Z,17.27
2022-09-24T22:05:19.445Z,22.05
2022-09-24T22:07:48.494Z,18.00
2022-09-24T22:10:15.914Z,18.60
2022-09-24T22:12:43.863Z,20.00
2022-09-24T22:15:11.273Z,19.38
2022-09-24T22:17:38.695Z,15.90
2022-09-24T22:20:06.369Z,16.30
2022-09-24T22:22:33.900Z,18.65
2022-09-24T22:25:01.270Z,15.40
2022-09-24T22:27:28.678Z,15.88
2022-09-24T22:29:56.148Z,15.10
2022-09-24T22:32:23.486Z,16.15
2022-09-24T22:35:09.375Z,15.27
2022-09-24T22:37:38.178Z,15.35
2022-09-24T22:40:05.724Z,11.65
2022-09-24T22:42:33.107Z,11.75
2022-09-24T22:45:00.451Z,11.90
2022-09-24T22:47:28.004Z,11.55
2022-09-24T22:49:55.396Z,12.10
2022-09-24T22:52:23.013Z,11.90
2022-09-24T22:54:50.375Z,12.30
2022-09-24T22:57:17.915Z,12.50
2022-09-24T22:59:45.275Z,11.25
2022-09-24T23:02:13.445Z,11.02
2022-09-24T23:04:41.766Z,10.00
2022-09-24T23:07:09.253Z,10.93
2022-09-24T23:09:36.623Z,11.70
2022-09-24T23:12:04.153Z,9.95
2022-09-24T23:14:31.483Z,9.70
2022-09-24T23:16:59.092Z,10.95
2022-09-24T23:19:47.109Z,10.55
2022-09-24T23:22:14.564Z,11.70
2022-09-24T23:24:41.955Z,10.13
2022-09-24T23:27:09.332Z,11.60
2022-09-24T23:29:36.779Z,11.75
2022-09-24T23:32:04.595Z,11.35
2022-09-24T23:34:32.012Z,12.77
2022-09-24T23:36:59.706Z,12.30
2022-09-24T23:39:27.215Z,12.43
2022-09-24T23:41:55.103Z,12.57
2022-09-24T23:44:22.777Z,12.73
2022-09-24T23:46:50.147Z,11.68
2022-09-24T23:49:17.568Z,11.85
2022-09-24T23:51:44.998Z,11.73
2022-09-24T23:54:12.490Z,11.27
2022-09-24T23:56:39.890Z,11.13
2022-09-24T23:59:07.398Z,11.55
